createdAt,value
2018-09-17T00:00:09.464Z,96054.20
2018-09-17T00:02:40.066Z,96053.45
2018-09-17T00:05:11.773Z,96052.00
2018-09-17T00:07:41.830Z,96049.59
2018-09-17T00:10:12.282Z,96052.23
2018-09-17T00:12:42.422Z,96054.31
2018-09-17T00:15:13.383Z,96049.07
2018-09-17T00:17:43.663Z,96046.25
2018-09-17T00:20:14.323Z,96040.42
2018-09-17T00:22:44.418Z,96049.93
2018-09-17T00:25:18.534Z,96054.77
2018-09-17T00:27:48.715Z,96056.13
2018-09-17T00:30:18.916Z,96056.09
2018-09-17T00:32:49.173Z,96049.43
2018-09-17T00:35:20.655Z,96050.94
2018-09-17T00:37:51.343Z,96053.66
2018-09-17T00:40:21.870Z,96053.28
2018-09-17T00:42:52.227Z,96059.48
2018-09-17T00:45:26.955Z,96062.05
2018-09-17T00:47:57.288Z,96054.41
2018-09-17T00:50:27.678Z,96062.25
2018-09-17T00:52:58.030Z,96058.33
2018-09-17T00:55:29.324Z,96058.77
2018-09-17T00:57:59.772Z,96061.09
2018-09-17T01:00:30.110Z,96063.61
2018-09-17T01:03:00.549Z,96068.55
2018-09-17T01:05:32.213Z,96069.70
2018-09-17T01:08:02.527Z,96059.22
2018-09-17T01:10:32.765Z,96060.56
2018-09-17T01:13:02.771Z,96064.59
2018-09-17T01:15:34.096Z,96062.73
2018-09-17T01:18:04.640Z,96061.04
2018-09-17T01:20:35.022Z,96061.49
2018-09-17T01:23:05.282Z,96067.90
2018-09-17T01:25:36.029Z,96062.22
2018-09-17T01:28:06.055Z,96062.29
2018-09-17T01:30:36.369Z,96051.76
2018-09-17T01:33:06.679Z,96061.09
2018-09-17T01:35:38.133Z,96057.06
2018-09-17T01:38:08.366Z,96053.38
2018-09-17T01:40:38.677Z,96056.82
2018-09-17T01:43:09.050Z,96057.76
2018-09-17T01:45:39.841Z,96058.67
2018-09-17T01:48:10.142Z,96061.78
2018-09-17T01:50:40.463Z,96057.88
2018-09-17T01:53:10.709Z,96058.83
2018-09-17T01:55:41.441Z,96063.70
2018-09-17T01:58:11.598Z,96062.95
2018-09-17T02:00:41.782Z,96056.19
2018-09-17T02:03:12.169Z,96053.27
2018-09-17T02:05:43.778Z,96057.20
2018-09-17T02:08:14.006Z,96051.89
2018-09-17T02:10:44.296Z,96058.42
2018-09-17T02:13:14.811Z,96062.31
2018-09-17T02:15:45.569Z,96058.77
2018-09-17T02:18:16.142Z,96056.51
2018-09-17T02:20:46.698Z,96062.44
2018-09-17T02:23:16.918Z,96065.09
2018-09-17T02:25:47.278Z,96068.16
2018-09-17T02:28:17.811Z,96076.93
2018-09-17T02:30:48.481Z,96071.50
2018-09-17T02:33:18.746Z,96071.78
2018-09-17T02:35:49.198Z,96080.00
2018-09-17T02:38:19.311Z,96078.13
2018-09-17T02:40:49.744Z,96078.56
2018-09-17T02:43:20.029Z,96082.63
2018-09-17T02:45:50.787Z,96083.37
2018-09-17T02:49:45.242Z,96077.53
2018-09-17T02:52:15.374Z,96072.70
2018-09-17T02:54:45.898Z,96077.20
2018-09-17T02:57:15.950Z,96073.95
2018-09-17T02:59:46.478Z,96075.55
2018-09-17T03:02:16.729Z,96073.84
2018-09-17T03:04:47.894Z,96072.67
2018-09-17T03:07:18.421Z,96072.30
2018-09-17T03:09:49.018Z,96068.29
2018-09-17T03:12:19.408Z,96061.31
2018-09-17T03:14:50.691Z,96075.23
2018-09-17T03:17:21.145Z,96071.84
2018-09-17T03:19:51.174Z,96079.66
2018-09-17T03:22:21.123Z,96083.36
2018-09-17T03:24:52.233Z,96083.23
2018-09-17T03:27:22.970Z,96089.80
2018-09-17T03:29:53.313Z,96082.20
2018-09-17T03:32:23.758Z,96092.09
2018-09-17T03:34:54.229Z,96100.73
2018-09-17T03:37:28.541Z,96095.94
2018-09-17T03:39:59.966Z,96102.12
2018-09-17T03:42:30.769Z,96105.16
2018-09-17T03:45:02.119Z,96107.70
2018-09-17T03:47:32.711Z,96109.00
2018-09-17T03:50:03.182Z,96106.77
2018-09-17T03:52:33.369Z,96112.25
2018-09-17T03:55:04.604Z,96113.95
2018-09-17T03:57:35.079Z,96119.81
2018-09-17T04:00:05.568Z,96119.38
2018-09-17T04:02:36.129Z,96120.23
2018-09-17T04:05:07.001Z,96121.20
2018-09-17T04:07:37.604Z,96124.80
2018-09-17T04:10:08.024Z,96125.56
2018-09-17T04:12:38.106Z,96121.74
2018-09-17T04:15:09.274Z,96124.62
2018-09-17T04:17:39.559Z,96123.82
2018-09-17T04:20:09.805Z,96121.14
2018-09-17T04:22:39.991Z,96124.38
2018-09-17T04:25:10.463Z,96127.81
2018-09-17T04:27:40.730Z,96120.83
2018-09-17T04:30:11.150Z,96115.89
2018-09-17T04:32:41.491Z,96121.30
2018-09-17T04:35:12.758Z,96126.03
2018-09-17T04:37:42.983Z,96127.63
2018-09-17T04:40:13.238Z,96126.91
2018-09-17T04:42:43.413Z,96132.47
2018-09-17T04:45:14.421Z,96130.54
2018-09-17T04:47:44.850Z,96133.33
2018-09-17T04:50:14.895Z,96140.91
2018-09-17T04:52:45.271Z,96145.86
2018-09-17T04:55:15.441Z,96144.50
2018-09-17T04:57:45.894Z,96155.15
2018-09-17T05:00:16.395Z,96154.13
2018-09-17T05:02:46.827Z,96159.05
2018-09-17T05:05:18.167Z,96164.72
2018-09-17T05:07:48.921Z,96163.59
2018-09-17T05:10:19.319Z,96159.64
2018-09-17T05:12:49.898Z,96162.24
2018-09-17T05:15:21.040Z,96167.63
2018-09-17T05:17:51.045Z,96159.78
2018-09-17T05:20:21.299Z,96162.49
2018-09-17T05:22:51.805Z,96161.98
2018-09-17T05:25:22.659Z,96164.53
2018-09-17T05:27:52.649Z,96159.74
2018-09-17T05:30:22.795Z,96155.08
2018-09-17T05:32:52.964Z,96158.06
2018-09-17T05:35:24.822Z,96153.44
2018-09-17T05:37:55.274Z,96153.52
2018-09-17T05:40:25.468Z,96160.06
2018-09-17T05:42:55.886Z,96157.73
2018-09-17T05:45:27.350Z,96160.98
2018-09-17T05:47:57.818Z,96155.52
2018-09-17T05:50:28.303Z,96155.75
2018-09-17T05:52:58.765Z,96158.86
2018-09-17T05:55:29.323Z,96158.13
2018-09-17T05:57:59.809Z,96159.70
2018-09-17T06:00:30.247Z,96160.33
2018-09-17T06:03:00.659Z,96160.73
2018-09-17T06:05:32.222Z,96158.48
2018-09-17T06:08:03.326Z,96161.40
2018-09-17T06:10:33.849Z,96161.44
2018-09-17T06:13:04.422Z,96157.86
2018-09-17T06:15:35.015Z,96159.93
2018-09-17T06:18:05.270Z,96156.44
2018-09-17T06:20:35.666Z,96164.50
2018-09-17T06:23:05.808Z,96162.77
2018-09-17T06:25:36.601Z,96159.09
2018-09-17T06:28:06.878Z,96161.53
2018-09-17T06:30:37.182Z,96163.03
2018-09-17T06:33:07.494Z,96163.69
2018-09-17T06:35:38.335Z,96163.58
2018-09-17T06:38:08.855Z,96159.60
2018-09-17T06:40:39.031Z,96155.67
2018-09-17T06:43:09.807Z,96156.02
2018-09-17T06:45:40.945Z,96164.91
2018-09-17T06:48:11.503Z,96157.91
2018-09-17T06:50:41.669Z,96158.45
2018-09-17T06:53:12.168Z,96161.25
2018-09-17T06:55:42.981Z,96170.13
2018-09-17T06:58:13.480Z,96160.64
2018-09-17T07:00:43.853Z,96163.04
2018-09-17T07:03:14.124Z,96162.41
2018-09-17T07:05:45.302Z,96166.11
2018-09-17T07:08:15.894Z,96166.25
2018-09-17T07:10:46.249Z,96166.44
2018-09-17T07:13:16.770Z,96165.20
2018-09-17T07:15:48.062Z,96168.41
2018-09-17T07:18:18.242Z,96173.01
2018-09-17T07:20:48.754Z,96176.39
2018-09-17T07:23:19.115Z,96172.22
2018-09-17T07:25:50.607Z,96170.77
2018-09-17T07:28:20.789Z,96171.05
2018-09-17T07:30:51.303Z,96176.05
2018-09-17T07:33:21.857Z,96171.12
2018-09-17T07:35:52.593Z,96167.64
2018-09-17T07:38:22.274Z,96157.11
2018-09-17T07:40:52.046Z,96165.13
2018-09-17T07:43:21.891Z,96165.86
2018-09-17T07:45:52.481Z,96159.25
2018-09-17T07:48:22.238Z,96160.64
2018-09-17T07:50:52.019Z,96154.55
2018-09-17T07:53:21.802Z,96158.90
2018-09-17T07:55:51.568Z,96158.30
2018-09-17T07:58:21.474Z,96154.66
2018-09-17T08:00:51.250Z,96156.98
2018-09-17T08:03:21.038Z,96156.45
2018-09-17T08:05:50.723Z,96154.31
2018-09-17T08:08:20.842Z,96146.06
2018-09-17T08:10:50.435Z,96143.72
2018-09-17T08:13:20.785Z,96140.34
2018-09-17T08:15:50.899Z,96137.58
2018-09-17T08:18:20.825Z,96135.19
2018-09-17T08:20:50.508Z,96130.71
2018-09-17T08:23:20.721Z,96130.17
2018-09-17T08:25:51.046Z,96126.11
2018-09-17T08:28:21.574Z,96119.42
2018-09-17T08:30:51.825Z,96122.37
2018-09-17T08:33:21.809Z,96113.53
2018-09-17T08:35:55.314Z,96113.16
2018-09-17T08:38:25.541Z,96112.20
2018-09-17T08:40:56.158Z,96108.11
2018-09-17T08:43:26.697Z,96102.81
2018-09-17T08:45:57.453Z,96096.25
2018-09-17T08:48:28.027Z,96093.38
2018-09-17T08:50:58.270Z,96091.83
2018-09-17T08:53:29.197Z,96089.45
2018-09-17T08:56:00.631Z,95889.46
2018-09-17T08:58:39.890Z,96074.88
2018-09-17T09:01:14.516Z,96073.73
2018-09-17T09:03:49.915Z,96074.05
2018-09-17T09:06:25.082Z,95906.17
2018-09-17T09:08:55.564Z,96067.37
2018-09-17T09:11:31.048Z,96066.34
2018-09-17T09:14:06.838Z,96066.17
2018-09-17T09:16:37.834Z,96057.89
2018-09-17T09:19:08.252Z,96055.86
2018-09-17T09:21:38.378Z,96054.24
2018-09-17T09:24:08.770Z,96046.67
2018-09-17T09:29:47.738Z,96041.83
2018-09-17T09:32:17.534Z,96037.52
2018-09-17T09:34:48.151Z,96026.11
2018-09-17T09:37:18.950Z,96028.34
2018-09-17T09:39:49.932Z,96025.66
2018-09-17T09:42:20.418Z,96026.16
2018-09-17T09:44:51.219Z,96014.94
2018-09-17T09:47:21.765Z,96005.79
2018-09-17T09:50:07.464Z,96005.81
2018-09-17T09:52:38.107Z,96002.03
2018-09-17T09:55:07.993Z,96003.64
2018-09-17T09:57:37.913Z,95993.27
2018-09-17T10:00:14.981Z,95998.81
2018-09-17T10:02:48.210Z,96000.24
2018-09-17T10:05:18.087Z,95989.19
2018-09-17T10:07:48.059Z,95999.78
2018-09-17T10:10:26.032Z,95991.66
2018-09-17T10:13:00.971Z,95987.32
2018-09-17T10:15:35.828Z,95989.47
2018-09-17T10:18:10.736Z,95982.84
2018-09-17T10:20:40.983Z,95979.87
2018-09-17T10:23:10.723Z,95977.08
2018-09-17T10:25:40.439Z,95980.08
2018-09-17T10:28:10.212Z,95971.07
2018-09-17T10:30:40.551Z,95977.33
2018-09-17T10:33:10.306Z,95972.47
2018-09-17T10:35:40.147Z,95966.52
2018-09-17T10:38:09.930Z,95974.09
2018-09-17T10:40:39.759Z,95962.76
2018-09-17T10:43:09.394Z,95957.77
2018-09-17T10:45:39.131Z,95956.67
2018-09-17T10:48:08.893Z,95950.70
2018-09-17T10:50:38.542Z,95948.08
2018-09-17T10:53:08.322Z,95944.20
2018-09-17T10:55:37.976Z,95942.95
2018-09-17T10:58:07.739Z,95935.65
2018-09-17T11:00:37.532Z,95927.19
2018-09-17T11:03:07.259Z,95928.19
2018-09-17T11:05:37.193Z,95930.10
2018-09-17T11:08:06.984Z,95927.23
2018-09-17T11:10:37.066Z,95922.45
2018-09-17T11:13:37.108Z,95917.69
2018-09-17T11:16:06.806Z,95922.45
2018-09-17T11:18:36.464Z,95911.28
2018-09-17T11:21:06.471Z,95914.27
2018-09-17T11:23:36.237Z,95911.27
2018-09-17T11:26:06.000Z,95909.25
2018-09-17T11:28:35.759Z,95911.42
2018-09-17T11:31:06.085Z,95901.56
2018-09-17T11:33:35.892Z,95896.97
2018-09-17T11:36:05.987Z,95897.93
2018-09-17T11:38:35.813Z,95902.05
2018-09-17T11:41:05.660Z,95890.17
2018-09-17T11:43:36.205Z,95895.94
2018-09-17T11:46:06.133Z,95895.75
2018-09-17T11:48:37.067Z,95891.45
2018-09-17T11:51:07.016Z,95886.67
2018-09-17T11:53:36.977Z,95880.21
2018-09-17T11:56:06.818Z,95879.36
2018-09-17T11:58:37.871Z,95871.44
2018-09-17T12:01:12.598Z,95868.14
2018-09-17T12:03:47.483Z,95867.94
2018-09-17T12:06:22.436Z,95858.44
2018-09-17T12:08:52.587Z,95858.09
2018-09-17T12:11:22.491Z,95852.03
2018-09-17T12:13:52.346Z,95852.77
2018-09-17T12:16:22.162Z,95847.37
2018-09-17T12:18:52.039Z,95839.45
2018-09-17T12:21:21.862Z,95844.64
2018-09-17T12:23:51.747Z,95847.67
2018-09-17T12:26:21.611Z,95835.56
2018-09-17T12:28:51.279Z,95837.52
2018-09-17T12:31:21.481Z,95835.62
2018-09-17T12:33:51.315Z,95838.11
2018-09-17T12:36:21.037Z,95840.52
2018-09-17T12:38:50.942Z,95828.27
2018-09-17T12:41:20.777Z,95827.04
2018-09-17T12:43:50.830Z,95826.73
2018-09-17T12:46:20.687Z,95823.63
2018-09-17T12:48:50.464Z,95825.08
2018-09-17T12:51:20.324Z,95822.72
2018-09-17T12:53:50.226Z,95822.44
2018-09-17T12:56:19.911Z,95809.63
2018-09-17T12:58:49.665Z,95813.45
2018-09-17T13:01:19.426Z,95808.62
2018-09-17T13:03:49.514Z,95806.98
2018-09-17T13:06:19.472Z,95807.25
2018-09-17T13:08:49.313Z,95814.48
2018-09-17T13:11:19.148Z,95805.86
2018-09-17T13:13:48.962Z,95804.25
2018-09-17T13:16:18.823Z,95799.08
2018-09-17T13:18:48.622Z,95797.23
2018-09-17T13:21:18.366Z,95789.54
2018-09-17T13:23:48.059Z,95791.91
2018-09-17T13:26:17.887Z,95795.11
2018-09-17T13:28:47.695Z,95789.64
2018-09-17T13:31:17.387Z,95793.69
2018-09-17T13:33:47.290Z,95781.62
2018-09-17T13:36:17.123Z,95783.58
2018-09-17T13:38:46.938Z,95777.24
2018-09-17T13:41:16.785Z,95782.37
2018-09-17T13:43:46.602Z,95774.98
2018-09-17T13:46:16.577Z,95777.87
2018-09-17T13:48:46.367Z,95781.22
2018-09-17T13:51:16.293Z,95768.62
2018-09-17T13:53:46.156Z,95766.27
2018-09-17T13:56:16.017Z,95757.34
2018-09-17T13:58:45.863Z,95766.89
2018-09-17T14:01:15.684Z,95769.48
2018-09-17T14:03:45.257Z,95768.36
2018-09-17T14:06:14.912Z,95764.35
2018-09-17T14:08:44.572Z,95761.05
2018-09-17T14:11:14.378Z,95750.53
2018-09-17T14:13:44.153Z,95756.66
2018-09-17T14:16:13.984Z,95753.77
2018-09-17T14:18:43.761Z,95749.83
2018-09-17T14:21:13.471Z,95754.23
2018-09-17T14:23:43.263Z,95748.48
2018-09-17T14:26:13.289Z,95751.16
2018-09-17T14:28:43.030Z,95746.52
2018-09-17T14:31:12.878Z,95743.71
2018-09-17T14:33:42.600Z,95740.59
2018-09-17T14:36:12.751Z,95750.70
2018-09-17T14:38:42.590Z,95745.39
2018-09-17T14:41:12.194Z,95760.51
2018-09-17T14:43:42.121Z,95751.94
2018-09-17T14:46:12.079Z,95749.72
2018-09-17T14:48:43.069Z,95750.86
2018-09-17T14:51:13.016Z,95746.29
2018-09-17T14:53:43.260Z,95747.22
2018-09-17T14:56:13.118Z,95748.03
2018-09-17T14:58:43.731Z,95748.36
2018-09-17T15:01:13.557Z,95752.24
2018-09-17T15:03:43.585Z,95751.78
2018-09-17T15:06:13.426Z,95747.53
2018-09-17T15:08:43.342Z,95750.70
2018-09-17T15:11:13.143Z,95760.82
2018-09-17T15:13:44.025Z,95757.82
2018-09-17T15:16:13.788Z,95764.98
2018-09-17T15:18:44.711Z,95764.70
2018-09-17T15:21:14.566Z,95763.16
2018-09-17T15:23:44.436Z,95759.18
2018-09-17T15:26:14.324Z,95763.52
2018-09-17T15:28:44.669Z,95770.97
2018-09-17T15:31:14.404Z,95760.39
2018-09-17T15:33:44.196Z,95770.45
2018-09-17T15:36:14.057Z,95772.50
2018-09-17T15:38:45.715Z,95772.44
2018-09-17T15:41:15.689Z,95772.24
2018-09-17T15:43:45.400Z,95599.18
2018-09-17T15:46:15.338Z,95784.92
2018-09-17T15:48:45.412Z,95785.81
2018-09-17T15:51:15.595Z,95788.55
2018-09-17T15:53:45.986Z,95787.48
2018-09-17T15:56:16.626Z,95787.98
2018-09-17T15:58:47.405Z,95799.94
2018-09-17T16:01:17.855Z,95795.09
2018-09-17T16:03:48.695Z,95799.13
2018-09-17T16:06:18.947Z,95804.11
2018-09-17T16:08:49.204Z,95799.32
2018-09-17T16:11:19.618Z,95800.09
2018-09-17T16:13:50.363Z,95803.64
2018-09-17T16:16:21.110Z,95807.48
2018-09-17T16:18:52.638Z,95802.84
2018-09-17T16:21:23.018Z,95801.86
2018-09-17T16:23:53.705Z,95808.83
2018-09-17T16:26:24.327Z,95803.17
2018-09-17T16:28:55.614Z,95804.23
2018-09-17T16:31:25.912Z,95807.58
2018-09-17T16:33:56.545Z,95806.36
2018-09-17T16:36:27.171Z,95805.86
2018-09-17T16:38:58.317Z,95806.19
2018-09-17T16:41:28.906Z,95813.41
2018-09-17T16:43:59.387Z,95812.62
2018-09-17T16:51:20.050Z,95824.32
2018-09-17T16:53:49.801Z,95834.79
2018-09-17T16:56:19.603Z,95831.96
2018-09-17T16:58:49.581Z,95834.81
2018-09-17T17:02:43.683Z,95838.58
2018-09-17T17:05:13.641Z,95843.64
2018-09-17T17:07:43.420Z,95853.53
2018-09-17T17:10:13.364Z,95858.75
2018-09-17T17:12:43.170Z,95854.96
2018-09-17T17:15:12.926Z,95856.86
2018-09-17T17:17:42.639Z,95864.20
2018-09-17T17:20:12.436Z,95870.02
2018-09-17T17:22:42.219Z,95870.94
2018-09-17T17:25:12.030Z,95870.29
2018-09-17T17:27:41.735Z,95822.02
2018-09-17T17:31:40.472Z,95878.84
2018-09-17T17:34:10.289Z,95870.10
2018-09-17T17:36:40.341Z,95873.41
2018-09-17T17:39:12.127Z,95872.08
2018-09-17T17:41:41.999Z,95874.17
2018-09-17T17:44:11.694Z,95884.21
2018-09-17T17:46:41.768Z,95882.73
2018-09-17T17:49:11.997Z,95888.44
2018-09-17T17:51:42.502Z,95885.16
2018-09-17T17:54:13.142Z,95896.44
2018-09-17T17:56:45.165Z,95895.08
2018-09-17T17:59:15.833Z,95899.38
2018-09-17T18:01:46.094Z,95899.70
2018-09-17T18:04:17.140Z,95900.95
2018-09-17T18:06:48.738Z,95905.20
2018-09-17T18:09:19.266Z,95910.70
2018-09-17T18:11:49.995Z,95916.08
2018-09-17T18:14:20.454Z,95918.63
2018-09-17T18:16:51.500Z,95913.97
2018-09-17T18:19:22.205Z,95915.77
2018-09-17T18:21:52.707Z,95922.73
2018-09-17T18:24:23.307Z,95922.83
2018-09-17T18:26:53.832Z,95926.33
2018-09-17T18:29:24.425Z,95928.66
2018-09-17T18:31:54.968Z,95931.48
2018-09-17T18:34:25.602Z,95934.33
2018-09-17T18:36:57.020Z,95924.89
2018-09-17T18:39:27.821Z,95928.38
2018-09-17T18:41:58.099Z,95928.08
2018-09-17T18:44:28.660Z,95932.21
2018-09-17T18:47:00.389Z,95941.13
2018-09-17T18:49:30.303Z,95943.12
2018-09-17T18:52:00.881Z,95943.85
2018-09-17T18:54:31.463Z,95941.23
2018-09-17T18:57:03.554Z,95938.61
2018-09-17T18:59:33.914Z,95930.62
2018-09-17T19:02:04.929Z,95936.66
2018-09-17T19:04:35.725Z,95940.32
2018-09-17T19:07:07.088Z,95932.41
2018-09-17T19:09:42.595Z,95939.83
2018-09-17T19:12:13.625Z,95934.06
2018-09-17T19:16:52.193Z,95934.74
2018-09-17T19:19:22.478Z,95937.17
2018-09-17T19:21:58.035Z,95947.00
2018-09-17T19:24:28.190Z,95945.61
2018-09-17T19:26:58.013Z,95942.78
2018-09-17T19:29:27.818Z,95942.37
2018-09-17T19:31:57.819Z,95944.44
2018-09-17T19:34:28.532Z,95947.13
2018-09-17T19:37:03.484Z,95944.59
2018-09-17T19:39:39.039Z,95956.02
2018-09-17T19:42:09.753Z,95956.42
2018-09-17T19:44:45.030Z,95958.38
2018-09-17T19:47:14.730Z,95958.20
2018-09-17T19:49:44.679Z,95724.38
2018-09-17T19:52:20.689Z,95959.98
2018-09-17T19:54:50.430Z,95959.34
2018-09-17T19:59:29.632Z,95960.59
2018-09-17T20:02:00.279Z,95964.36
2018-09-17T20:04:35.645Z,95965.72
2018-09-17T20:07:06.210Z,95967.30
2018-09-17T20:09:36.823Z,95962.81
2018-09-17T20:12:07.702Z,95969.84
2018-09-17T20:14:38.686Z,95969.09
2018-09-17T20:17:09.322Z,95966.61
2018-09-17T20:19:39.862Z,95964.83
2018-09-17T20:22:11.393Z,95920.58
2018-09-17T20:24:43.459Z,95962.12
2018-09-17T20:27:14.236Z,95961.23
2018-09-17T20:29:44.608Z,95961.75
2018-09-17T20:32:15.267Z,95971.34
2018-09-17T20:34:46.340Z,95971.66
2018-09-17T20:37:16.999Z,95965.94
2018-09-17T20:39:47.359Z,95963.47
2018-09-17T20:42:17.754Z,95966.41
2018-09-17T20:44:48.257Z,95971.61
2018-09-17T20:47:18.784Z,95965.92
2018-09-17T20:49:49.367Z,95970.65
2018-09-17T20:52:19.971Z,95980.27
2018-09-17T20:54:51.057Z,95975.95
2018-09-17T20:57:21.471Z,95971.33
2018-09-17T20:59:51.763Z,95977.45
2018-09-17T21:02:22.384Z,95970.22
2018-09-17T21:04:54.148Z,95976.33
2018-09-17T21:07:24.811Z,95968.36
2018-09-17T21:09:55.602Z,95965.58
2018-09-17T21:12:25.784Z,95962.89
2018-09-17T21:14:56.898Z,95961.42
2018-09-17T21:17:27.270Z,95968.41
2018-09-17T21:19:57.560Z,95972.24
2018-09-17T21:22:28.398Z,95976.50
2018-09-17T21:24:59.511Z,95978.87
2018-09-17T21:27:30.035Z,95973.56
2018-09-17T21:30:00.478Z,95970.21
2018-09-17T21:32:31.128Z,95971.11
2018-09-17T21:35:02.274Z,95975.86
2018-09-17T21:37:32.626Z,95979.36
2018-09-17T21:40:03.286Z,95972.37
2018-09-17T21:42:33.635Z,95977.66
2018-09-17T21:45:04.316Z,95977.42
2018-09-17T21:47:34.999Z,95974.26
2018-09-17T21:50:05.420Z,95973.59
2018-09-17T21:52:36.136Z,95978.89
2018-09-17T21:55:07.032Z,95978.41
2018-09-17T21:57:37.770Z,95977.89
2018-09-17T22:00:09.074Z,95988.02
2018-09-17T22:02:39.643Z,95987.55
2018-09-17T22:05:10.381Z,95986.62
2018-09-17T22:07:41.087Z,95975.95
2018-09-17T22:10:11.268Z,95987.77
2018-09-17T22:12:41.751Z,95986.52
2018-09-17T22:15:12.373Z,95986.62
2018-09-17T22:17:42.778Z,95981.69
2018-09-17T22:20:13.416Z,95938.95
2018-09-17T22:22:44.017Z,95986.38
2018-09-17T22:25:14.363Z,95989.01
2018-09-17T22:27:44.723Z,95984.84
2018-09-17T22:30:15.456Z,95985.50
2018-09-17T22:32:45.969Z,95989.32
2018-09-17T22:35:16.892Z,95984.84
2018-09-17T22:37:47.305Z,95989.64
2018-09-17T22:40:18.082Z,95987.77
2018-09-17T22:42:48.539Z,95989.67
2018-09-17T22:45:19.497Z,95988.55
2018-09-17T22:47:49.985Z,95989.16
2018-09-17T22:50:20.384Z,95984.41
2018-09-17T22:52:50.683Z,95989.11
2018-09-17T22:55:21.738Z,95987.12
2018-09-17T22:59:16.643Z,95995.61
2018-09-17T23:01:46.986Z,95992.59
2018-09-17T23:04:17.219Z,95985.31
2018-09-17T23:06:47.717Z,95985.17
2018-09-17T23:09:18.438Z,95984.83
2018-09-17T23:11:49.003Z,95990.20
2018-09-17T23:14:20.043Z,95991.63
2018-09-17T23:16:50.822Z,95988.05
2018-09-17T23:19:21.671Z,95993.11
2018-09-17T23:21:52.419Z,95991.83
2018-09-17T23:24:23.969Z,95994.56
2018-09-17T23:26:54.698Z,95990.98
2018-09-17T23:29:25.268Z,95984.92
2018-09-17T23:31:55.984Z,95988.86
2018-09-17T23:34:26.720Z,95983.22
2018-09-17T23:36:57.493Z,95989.48
2018-09-17T23:39:28.084Z,95986.27
2018-09-17T23:41:58.846Z,95994.33
2018-09-17T23:44:29.305Z,95992.45
2018-09-17T23:46:59.691Z,95987.53
2018-09-17T23:49:30.195Z,95990.30
2018-09-17T23:52:00.782Z,95988.45
2018-09-17T23:54:32.348Z,95994.14
2018-09-17T23:57:03.010Z,95991.29
2018-09-17T23:59:33.541Z,95993.34
